createdAt,value
2024-03-26T00:00:14.637Z,100134.61
2024-03-26T00:02:42.338Z,100136.25
2024-03-26T00:05:10.248Z,100130.80
2024-03-26T00:07:37.343Z,100124.77
2024-03-26T00:10:05.088Z,100104.27
2024-03-26T00:12:34.932Z,100097.02
2024-03-26T00:15:01.872Z,100090.97
2024-03-26T00:17:29.378Z,100081.66
2024-03-26T00:19:57.943Z,100075.64
2024-03-26T00:22:27.547Z,100049.32
2024-03-26T00:24:54.506Z,100087.39
2024-03-26T00:27:21.767Z,100076.92
2024-03-26T00:29:49.013Z,100068.18
2024-03-26T00:32:16.590Z,100060.98
2024-03-26T00:34:43.933Z,100052.17
2024-03-26T00:37:11.079Z,100074.17
2024-03-26T00:39:37.903Z,100051.58
2024-03-26T00:42:04.923Z,100027.61
2024-03-26T00:44:32.288Z,100000.36
2024-03-26T00:47:00.121Z,100016.04
2024-03-26T00:49:27.180Z,100011.88
2024-03-26T00:51:54.671Z,100024.52
2024-03-26T00:54:23.992Z,100006.33
2024-03-26T00:56:52.456Z,100034.66
2024-03-26T00:59:19.961Z,100028.67
2024-03-26T01:01:47.005Z,100045.60
2024-03-26T01:04:14.285Z,100121.41
2024-03-26T01:06:42.139Z,100142.48
2024-03-26T01:09:09.591Z,100155.42
2024-03-26T01:11:37.009Z,100150.50
2024-03-26T01:14:04.087Z,100143.48
2024-03-26T01:16:31.546Z,100119.81
2024-03-26T01:18:58.889Z,100107.11
2024-03-26T01:21:26.656Z,100092.45
2024-03-26T01:23:53.575Z,100090.38
2024-03-26T01:26:20.412Z,100094.29
2024-03-26T01:28:48.017Z,100100.73
2024-03-26T01:31:15.370Z,100097.90
2024-03-26T01:33:42.312Z,100115.94
2024-03-26T01:36:09.191Z,100122.45
2024-03-26T01:38:36.439Z,100113.80
2024-03-26T01:41:04.209Z,100087.27
2024-03-26T01:43:31.211Z,100124.79
2024-03-26T01:45:58.190Z,100100.48
2024-03-26T01:48:25.304Z,100065.52
2024-03-26T01:50:53.367Z,100023.23
2024-03-26T01:53:21.235Z,100013.08
2024-03-26T01:55:50.386Z,99982.36
2024-03-26T01:58:22.057Z,99931.48
2024-03-26T02:00:52.633Z,99877.25
2024-03-26T02:03:19.606Z,99845.70
2024-03-26T02:05:47.525Z,99937.41
2024-03-26T02:08:16.248Z,99991.48
2024-03-26T02:10:44.441Z,100010.90
2024-03-26T02:13:11.605Z,100005.13
2024-03-26T02:15:39.160Z,100004.28
2024-03-26T02:18:06.764Z,99976.80
2024-03-26T02:20:33.697Z,99893.79
2024-03-26T02:23:00.985Z,99833.81
2024-03-26T02:25:28.191Z,99793.27
2024-03-26T02:27:55.965Z,99784.16
2024-03-26T02:30:22.881Z,99759.31
2024-03-26T02:32:50.053Z,99746.52
2024-03-26T02:35:18.121Z,99778.18
2024-03-26T02:37:45.731Z,99756.38
2024-03-26T02:40:13.381Z,99734.23
2024-03-26T02:42:40.494Z,99747.95
2024-03-26T02:45:08.650Z,99762.73
2024-03-26T02:47:35.579Z,99725.42
2024-03-26T02:50:02.421Z,99751.34
2024-03-26T02:52:32.168Z,99759.13
2024-03-26T02:54:59.099Z,99781.64
2024-03-26T02:57:25.913Z,99853.54
2024-03-26T02:59:52.923Z,99833.02
2024-03-26T03:02:20.777Z,99854.86
2024-03-26T03:04:47.818Z,99862.60
2024-03-26T03:07:14.976Z,99863.45
2024-03-26T03:09:42.123Z,99859.20
2024-03-26T03:12:09.147Z,99804.59
2024-03-26T03:14:36.104Z,99806.89
2024-03-26T03:17:06.454Z,99803.31
2024-03-26T03:19:33.624Z,99798.27
2024-03-26T03:22:00.818Z,99752.57
2024-03-26T03:24:28.104Z,99748.20
2024-03-26T03:26:55.117Z,99728.03
2024-03-26T03:29:23.015Z,99745.15
2024-03-26T03:31:49.897Z,99778.25
2024-03-26T03:34:17.249Z,99764.25
2024-03-26T03:36:44.280Z,99804.09
2024-03-26T03:39:11.238Z,99793.63
2024-03-26T03:41:38.451Z,99789.91
2024-03-26T03:44:06.033Z,99820.48
2024-03-26T03:46:33.082Z,99822.95
2024-03-26T03:49:00.026Z,99866.47
2024-03-26T03:51:30.137Z,99962.98
2024-03-26T03:53:57.680Z,99974.50
2024-03-26T03:56:24.660Z,99975.46
2024-03-26T03:58:51.818Z,99987.98
2024-03-26T04:01:22.995Z,99995.06
2024-03-26T04:03:49.906Z,99996.27
2024-03-26T04:06:17.323Z,100005.77
2024-03-26T04:08:44.738Z,99987.94
2024-03-26T04:11:15.445Z,99968.35
2024-03-26T04:13:42.547Z,99973.61
2024-03-26T04:16:09.697Z,99987.56
2024-03-26T04:18:36.631Z,99993.73
2024-03-26T04:21:03.751Z,99994.47
2024-03-26T04:23:30.793Z,100001.23
2024-03-26T04:26:01.492Z,100003.51
2024-03-26T04:28:29.288Z,100001.44
2024-03-26T04:30:56.451Z,100022.86
2024-03-26T04:33:23.542Z,100031.00
2024-03-26T04:35:51.203Z,100013.31
2024-03-26T04:38:18.314Z,100019.63
2024-03-26T04:40:48.959Z,100047.21
2024-03-26T04:43:16.551Z,100068.92
2024-03-26T04:45:43.870Z,100094.83
2024-03-26T04:48:11.270Z,100129.67
2024-03-26T04:50:39.037Z,100144.78
2024-03-26T04:53:07.082Z,100131.08
2024-03-26T04:55:34.341Z,100141.15
2024-03-26T04:58:01.770Z,100120.66
2024-03-26T05:00:29.238Z,100103.77
2024-03-26T05:02:58.030Z,100098.33
2024-03-26T05:05:25.689Z,100107.81
2024-03-26T05:07:55.654Z,100104.23
2024-03-26T05:10:22.760Z,100110.92
2024-03-26T05:12:50.385Z,100107.66
2024-03-26T05:15:17.385Z,100120.90
2024-03-26T05:17:44.295Z,100134.26
2024-03-26T05:20:11.966Z,100126.04
2024-03-26T05:22:39.519Z,100140.13
2024-03-26T05:25:07.245Z,100126.39
2024-03-26T05:27:35.080Z,100097.27
2024-03-26T05:30:02.437Z,100078.63
2024-03-26T05:32:30.401Z,100064.17
2024-03-26T05:34:58.694Z,100056.36
2024-03-26T05:37:26.345Z,100025.60
2024-03-26T05:39:53.797Z,100041.45
2024-03-26T05:42:20.842Z,100023.36
2024-03-26T05:44:47.931Z,100014.98
2024-03-26T05:47:15.648Z,100031.19
2024-03-26T05:49:43.089Z,100038.71
2024-03-26T05:52:10.567Z,100050.47
2024-03-26T05:54:37.421Z,100037.34
2024-03-26T05:57:04.364Z,100035.85
2024-03-26T05:59:31.682Z,100060.58
2024-03-26T06:01:58.880Z,100062.01
2024-03-26T06:04:26.616Z,100056.29
2024-03-26T06:06:53.745Z,100057.08
2024-03-26T06:09:22.072Z,100043.71
2024-03-26T06:11:52.658Z,100048.54
2024-03-26T06:14:19.861Z,100045.05
2024-03-26T06:16:47.432Z,100036.66
2024-03-26T06:19:14.801Z,100059.58
2024-03-26T06:21:41.975Z,100067.15
2024-03-26T06:24:09.594Z,100077.74
2024-03-26T06:26:37.155Z,100060.42
2024-03-26T06:29:04.935Z,100055.45
2024-03-26T06:31:31.930Z,100067.28
2024-03-26T06:33:58.993Z,100089.33
2024-03-26T06:36:26.013Z,100085.30
2024-03-26T06:38:54.679Z,100070.27
2024-03-26T06:41:22.616Z,100071.48
2024-03-26T06:43:50.179Z,100083.40
2024-03-26T06:46:17.990Z,100104.41
2024-03-26T06:48:46.242Z,100108.70
2024-03-26T06:51:13.521Z,100089.64
2024-03-26T06:53:40.939Z,100065.77
2024-03-26T06:56:08.653Z,100069.83
2024-03-26T06:58:40.325Z,100075.64
2024-03-26T07:01:07.922Z,100022.80
2024-03-26T07:03:35.034Z,99990.09
2024-03-26T07:06:02.494Z,99976.84
2024-03-26T07:08:30.116Z,99985.29
2024-03-26T07:10:57.475Z,99981.09
2024-03-26T07:13:28.387Z,99968.86
2024-03-26T07:15:55.823Z,99919.44
2024-03-26T07:18:22.774Z,99907.77
2024-03-26T07:20:53.385Z,99908.66
2024-03-26T07:23:20.429Z,99894.45
2024-03-26T07:25:50.072Z,99892.70
2024-03-26T07:28:17.954Z,99885.27
2024-03-26T07:30:45.490Z,99869.92
2024-03-26T07:33:12.829Z,99863.99
2024-03-26T07:35:41.619Z,99926.74
2024-03-26T07:38:09.700Z,99933.90
2024-03-26T07:40:37.186Z,99913.00
2024-03-26T07:43:13.428Z,99894.20
2024-03-26T07:45:44.757Z,99946.96
2024-03-26T07:48:12.010Z,99947.34
2024-03-26T07:50:40.792Z,99877.66
2024-03-26T07:53:08.464Z,99860.77
2024-03-26T07:55:39.957Z,99826.02
2024-03-26T07:58:07.704Z,99794.98
2024-03-26T08:00:35.237Z,99816.98
2024-03-26T08:03:03.182Z,99803.22
2024-03-26T08:05:30.198Z,99754.92
2024-03-26T08:08:00.135Z,99726.26
2024-03-26T08:10:27.129Z,99733.08
2024-03-26T08:12:56.088Z,99773.30
2024-03-26T08:15:23.231Z,99813.07
2024-03-26T08:17:50.730Z,99834.16
2024-03-26T08:20:19.096Z,99844.21
2024-03-26T08:22:46.968Z,99856.73
2024-03-26T08:25:15.511Z,99858.68
2024-03-26T08:27:42.984Z,99860.95
2024-03-26T08:30:11.844Z,99851.13
2024-03-26T08:32:39.319Z,99852.86
2024-03-26T08:35:09.371Z,99857.95
2024-03-26T08:37:39.177Z,99867.27
2024-03-26T08:40:10.478Z,99860.44
2024-03-26T08:42:37.967Z,99871.83
2024-03-26T08:45:09.751Z,99872.56
2024-03-26T08:47:38.866Z,99873.61
2024-03-26T08:50:10.031Z,99870.62
2024-03-26T08:52:37.764Z,99869.08
2024-03-26T08:55:05.626Z,99875.11
2024-03-26T08:57:32.954Z,99880.26
2024-03-26T08:59:59.876Z,99880.11
2024-03-26T09:02:27.765Z,99877.98
2024-03-26T09:04:54.829Z,99867.52
2024-03-26T09:07:22.892Z,99879.27
2024-03-26T09:09:50.079Z,99886.61
2024-03-26T09:12:17.383Z,99884.10
2024-03-26T09:14:45.084Z,99878.09
2024-03-26T09:17:13.096Z,99884.89
2024-03-26T09:19:40.006Z,99880.18
2024-03-26T09:22:07.862Z,99878.58
2024-03-26T09:24:43.180Z,99878.47
2024-03-26T09:27:17.446Z,99872.27
2024-03-26T09:29:44.474Z,99863.38
2024-03-26T09:32:12.171Z,99860.30
2024-03-26T09:34:39.408Z,99857.89
2024-03-26T09:37:07.277Z,99873.38
2024-03-26T09:39:35.071Z,99879.55
2024-03-26T09:42:04.341Z,99873.73
2024-03-26T09:44:32.449Z,99863.23
2024-03-26T09:47:01.963Z,99865.02
2024-03-26T09:49:32.589Z,99854.55
2024-03-26T09:52:02.086Z,99851.21
2024-03-26T09:54:30.109Z,99849.50
2024-03-26T09:56:57.011Z,99855.11
2024-03-26T09:59:24.082Z,99860.27
2024-03-26T10:01:55.797Z,99862.00
2024-03-26T10:04:23.300Z,99860.77
2024-03-26T10:06:51.058Z,99856.39
2024-03-26T10:09:18.710Z,99853.95
2024-03-26T10:11:47.224Z,99849.45
2024-03-26T10:14:14.536Z,99840.49
2024-03-26T10:16:43.082Z,99834.17
2024-03-26T10:19:11.153Z,99833.85
2024-03-26T10:21:46.396Z,99822.66
2024-03-26T10:24:13.809Z,99821.98
2024-03-26T10:26:41.201Z,99818.23
2024-03-26T10:29:10.299Z,99818.49
2024-03-26T10:31:40.252Z,99818.65
2024-03-26T10:34:11.147Z,99822.54
2024-03-26T10:36:39.092Z,99815.64
2024-03-26T10:39:07.482Z,99812.18
2024-03-26T10:41:36.243Z,99802.43
2024-03-26T10:44:03.477Z,99802.42
2024-03-26T10:46:32.484Z,99791.40
2024-03-26T10:51:28.097Z,99781.84
2024-03-26T10:54:00.813Z,99775.48
2024-03-26T10:56:28.114Z,99771.89
2024-03-26T10:59:01.706Z,99770.11
2024-03-26T11:01:31.527Z,99768.20
2024-03-26T11:03:59.777Z,99756.28
2024-03-26T11:06:30.022Z,99759.66
2024-03-26T11:09:03.953Z,99749.21
2024-03-26T11:11:37.684Z,99745.86
2024-03-26T11:14:05.385Z,99741.24
2024-03-26T11:16:37.898Z,99727.35
2024-03-26T11:19:26.272Z,99723.70
2024-03-26T11:21:55.256Z,99718.81
2024-03-26T11:24:31.795Z,99717.05
2024-03-26T11:27:00.620Z,99706.83
2024-03-26T11:29:29.147Z,99699.36
2024-03-26T11:32:00.071Z,99699.79
2024-03-26T11:34:28.408Z,99693.59
2024-03-26T11:36:58.517Z,99699.27
2024-03-26T11:39:27.287Z,99691.64
2024-03-26T11:41:56.269Z,99690.01
2024-03-26T11:44:24.459Z,99689.54
2024-03-26T11:46:51.981Z,99691.48
2024-03-26T11:49:19.564Z,99691.28
2024-03-26T11:51:46.915Z,99690.79
2024-03-26T11:54:14.812Z,99681.52
2024-03-26T11:56:42.313Z,99675.05
2024-03-26T11:59:10.068Z,99682.73
2024-03-26T12:01:37.298Z,99670.60
2024-03-26T12:04:04.582Z,99678.55
2024-03-26T12:06:34.169Z,99677.60
2024-03-26T12:09:02.334Z,99672.62
2024-03-26T12:11:30.454Z,99668.48
2024-03-26T12:13:57.859Z,99674.90
2024-03-26T12:16:27.143Z,99667.63
2024-03-26T12:18:55.474Z,99659.63
2024-03-26T12:21:24.276Z,99667.61
2024-03-26T12:23:56.131Z,99666.90
2024-03-26T12:26:24.125Z,99665.67
2024-03-26T12:28:52.076Z,99663.56
2024-03-26T12:31:19.628Z,99664.84
2024-03-26T12:33:50.109Z,99665.52
2024-03-26T12:36:19.426Z,99667.30
2024-03-26T12:38:46.911Z,99662.73
2024-03-26T12:41:13.961Z,99665.45
2024-03-26T12:43:42.461Z,99662.20
2024-03-26T12:46:09.595Z,99663.27
2024-03-26T12:48:36.949Z,99660.56
2024-03-26T12:51:04.361Z,99663.48
2024-03-26T12:53:31.359Z,99658.71
2024-03-26T12:56:01.595Z,99658.98
2024-03-26T12:58:28.805Z,99663.56
2024-03-26T13:00:56.592Z,99660.80
2024-03-26T13:03:24.524Z,99665.46
2024-03-26T13:05:52.282Z,99670.63
2024-03-26T13:08:19.624Z,99666.86
2024-03-26T13:10:49.718Z,99658.58
2024-03-26T13:13:18.016Z,99661.54
2024-03-26T13:15:47.498Z,99660.31
2024-03-26T13:18:15.061Z,99668.70
2024-03-26T13:20:42.308Z,99669.05
2024-03-26T13:23:09.332Z,99665.02
2024-03-26T13:25:37.853Z,99667.10
2024-03-26T13:28:06.143Z,99663.21
2024-03-26T13:30:40.800Z,99660.57
2024-03-26T13:33:11.832Z,99664.42
2024-03-26T13:35:39.363Z,99670.70
2024-03-26T13:38:07.698Z,99676.58
2024-03-26T13:43:07.669Z,99675.00
2024-03-26T13:45:48.959Z,99671.04
2024-03-26T13:48:23.752Z,99666.52
2024-03-26T13:50:51.401Z,99667.84
2024-03-26T13:53:19.359Z,99667.92
2024-03-26T13:55:46.747Z,99671.86
2024-03-26T13:58:13.723Z,99683.79
2024-03-26T14:00:41.258Z,99689.09
2024-03-26T14:03:12.457Z,99684.75
2024-03-26T14:05:39.941Z,99681.45
2024-03-26T14:08:07.465Z,99685.80
2024-03-26T14:10:34.488Z,99684.16
2024-03-26T14:13:01.549Z,99689.77
2024-03-26T14:15:29.412Z,99688.39
2024-03-26T14:17:57.279Z,99694.80
2024-03-26T14:20:25.567Z,99697.14
2024-03-26T14:22:52.815Z,99700.95
2024-03-26T14:25:20.376Z,99697.71
2024-03-26T14:27:47.835Z,99700.09
2024-03-26T14:30:16.023Z,99699.80
2024-03-26T14:32:43.846Z,99698.78
2024-03-26T14:35:13.251Z,99706.67
2024-03-26T14:37:41.287Z,99713.02
2024-03-26T14:40:11.704Z,99720.52
2024-03-26T14:42:38.899Z,99725.60
2024-03-26T14:45:07.428Z,99717.20
2024-03-26T14:47:36.901Z,99716.44
2024-03-26T14:50:04.724Z,99706.81
2024-03-26T14:52:32.699Z,99714.82
2024-03-26T14:55:00.204Z,99721.66
2024-03-26T14:57:27.902Z,99732.33
2024-03-26T14:59:55.419Z,99731.60
2024-03-26T15:02:22.375Z,99738.05
2024-03-26T15:04:49.619Z,99741.02
2024-03-26T15:07:16.908Z,99747.22
2024-03-26T15:09:44.474Z,99752.05
2024-03-26T15:12:12.232Z,99754.13
2024-03-26T15:14:41.019Z,99746.52
2024-03-26T15:17:08.435Z,99745.17
2024-03-26T15:19:36.056Z,99749.85
2024-03-26T15:22:04.839Z,99755.31
2024-03-26T15:24:33.907Z,99766.80
2024-03-26T15:27:10.349Z,99763.48
2024-03-26T15:30:06.855Z,99760.90
2024-03-26T15:32:34.929Z,99765.97
2024-03-26T15:35:02.838Z,99774.44
2024-03-26T15:37:29.821Z,99777.58
2024-03-26T15:39:57.150Z,99780.01
2024-03-26T15:42:24.134Z,99779.09
2024-03-26T15:44:53.427Z,99776.93
2024-03-26T15:47:20.803Z,99783.41
2024-03-26T15:49:47.957Z,99789.53
2024-03-26T15:52:15.493Z,99790.23
2024-03-26T15:54:42.423Z,99793.31
2024-03-26T15:57:09.616Z,99793.69
2024-03-26T15:59:36.930Z,99792.73
2024-03-26T16:02:04.356Z,99788.22
2024-03-26T16:04:33.271Z,99790.03
2024-03-26T16:07:00.476Z,99798.56
2024-03-26T16:09:27.415Z,99800.63
2024-03-26T16:11:54.590Z,99796.55
2024-03-26T16:14:21.565Z,99795.08
2024-03-26T16:16:48.556Z,99793.91
2024-03-26T16:19:16.566Z,99795.09
2024-03-26T16:21:45.026Z,99798.49
2024-03-26T16:24:12.193Z,99805.42
2024-03-26T16:26:39.424Z,99806.75
2024-03-26T16:29:07.032Z,99811.15
2024-03-26T16:31:34.093Z,99814.27
2024-03-26T16:34:01.968Z,99820.69
2024-03-26T16:36:29.452Z,99824.40
2024-03-26T16:38:56.908Z,99820.21
2024-03-26T16:41:45.370Z,99821.90
2024-03-26T16:44:13.183Z,99824.66
2024-03-26T16:46:42.740Z,99824.88
2024-03-26T16:49:11.778Z,99825.52
2024-03-26T16:51:40.428Z,99824.61
2024-03-26T16:54:08.558Z,99829.48
2024-03-26T16:56:38.927Z,99830.70
2024-03-26T16:59:08.602Z,99832.13
2024-03-26T17:01:36.199Z,99831.86
2024-03-26T17:04:03.941Z,99834.85
2024-03-26T17:06:31.028Z,99835.05
2024-03-26T17:08:59.658Z,99832.09
2024-03-26T17:11:31.451Z,99828.11
2024-03-26T17:14:02.015Z,99828.80
2024-03-26T17:16:36.083Z,99827.43
2024-03-26T17:19:12.006Z,99827.95
2024-03-26T17:21:41.070Z,99828.37
2024-03-26T17:24:08.119Z,99836.62
2024-03-26T17:26:36.587Z,99837.50
2024-03-26T17:29:04.232Z,99839.40
2024-03-26T17:31:33.307Z,99841.25
2024-03-26T17:34:04.483Z,99841.04
2024-03-26T17:36:33.742Z,99845.02
2024-03-26T17:39:03.455Z,99844.48
2024-03-26T17:41:30.889Z,99845.45
2024-03-26T17:43:59.161Z,99846.77
2024-03-26T17:46:27.053Z,99849.53
2024-03-26T17:48:55.861Z,99857.95
2024-03-26T17:51:23.869Z,99860.80
2024-03-26T17:53:53.055Z,99866.95
2024-03-26T17:56:24.734Z,99870.65
2024-03-26T17:58:53.354Z,99881.41
2024-03-26T18:01:21.221Z,99888.20
2024-03-26T18:03:49.003Z,99891.48
2024-03-26T18:06:21.798Z,99894.52
2024-03-26T18:08:51.983Z,99898.95
2024-03-26T18:11:21.280Z,99902.28
2024-03-26T18:13:51.645Z,99906.88
2024-03-26T18:16:19.490Z,99907.55
2024-03-26T18:18:48.692Z,99914.48
2024-03-26T18:21:18.535Z,99913.26
2024-03-26T18:23:45.932Z,99914.30
2024-03-26T18:26:15.576Z,99919.17
2024-03-26T18:28:45.486Z,99918.39
2024-03-26T18:31:16.472Z,99924.55
2024-03-26T18:33:46.542Z,99924.35
2024-03-26T18:36:14.782Z,99926.52
2024-03-26T18:38:44.619Z,99928.83
2024-03-26T18:41:14.470Z,99932.11
2024-03-26T18:43:44.086Z,99936.16
2024-03-26T18:46:14.260Z,99936.08
2024-03-26T18:48:43.206Z,99935.38
2024-03-26T18:51:11.600Z,99939.76
2024-03-26T18:53:41.780Z,99951.34
2024-03-26T18:56:16.485Z,99954.20
2024-03-26T18:58:47.011Z,99959.28
2024-03-26T19:01:19.547Z,99970.19
2024-03-26T19:03:51.620Z,99979.23
2024-03-26T19:06:23.564Z,99984.56
2024-03-26T19:08:56.026Z,99988.42
2024-03-26T19:11:26.166Z,99989.62
2024-03-26T19:13:57.676Z,99989.10
2024-03-26T19:16:28.229Z,99989.69
2024-03-26T19:19:02.133Z,99990.42
2024-03-26T19:21:31.497Z,99989.30
2024-03-26T19:23:58.916Z,99991.98
2024-03-26T19:26:26.442Z,99990.80
2024-03-26T19:28:56.022Z,99991.90
2024-03-26T19:31:23.264Z,99990.84
2024-03-26T19:33:50.481Z,99993.70
2024-03-26T19:36:22.039Z,99997.46
2024-03-26T19:38:51.821Z,99999.95
2024-03-26T19:41:19.199Z,100005.51
2024-03-26T19:43:49.155Z,100005.38
2024-03-26T19:46:19.614Z,100008.92
2024-03-26T19:48:50.964Z,100011.05
2024-03-26T19:51:20.975Z,100012.43
2024-03-26T19:53:50.902Z,100015.63
2024-03-26T19:56:18.808Z,100018.35
2024-03-26T19:58:48.290Z,100015.23
2024-03-26T20:01:19.215Z,100016.17
2024-03-26T20:03:48.926Z,100015.48
2024-03-26T20:06:19.352Z,100016.33
2024-03-26T20:08:47.665Z,100021.73
2024-03-26T20:11:19.934Z,100018.86
2024-03-26T20:13:47.365Z,100014.62
2024-03-26T20:16:21.761Z,100012.48
2024-03-26T20:18:52.188Z,100016.55
2024-03-26T20:21:22.256Z,100021.73
2024-03-26T20:23:49.382Z,100029.42
2024-03-26T20:26:19.345Z,100047.72
2024-03-26T20:28:46.830Z,100063.88
2024-03-26T20:31:16.628Z,100070.69
2024-03-26T20:33:47.373Z,100057.92
2024-03-26T20:36:18.782Z,100037.68
2024-03-26T20:38:48.705Z,100041.18
2024-03-26T20:41:19.267Z,100051.94
2024-03-26T20:43:48.289Z,100051.15
2024-03-26T20:46:17.944Z,100048.98
2024-03-26T20:48:47.469Z,100057.31
2024-03-26T20:51:18.016Z,100060.70
2024-03-26T20:53:46.391Z,100054.49
2024-03-26T20:56:13.607Z,100060.10
2024-03-26T20:58:42.460Z,100063.27
2024-03-26T21:01:19.014Z,100057.14
2024-03-26T21:03:47.747Z,100060.69
2024-03-26T21:06:17.990Z,100059.52
2024-03-26T21:08:47.515Z,100054.18
2024-03-26T21:11:15.093Z,100053.61
2024-03-26T21:13:44.927Z,100056.95
2024-03-26T21:16:16.522Z,100056.34
2024-03-26T21:18:51.434Z,100056.58
2024-03-26T21:21:21.031Z,100063.03
2024-03-26T21:23:50.506Z,100062.60
2024-03-26T21:26:21.246Z,100057.61
2024-03-26T21:28:48.385Z,100055.88
2024-03-26T21:31:15.593Z,100053.35
2024-03-26T21:33:43.231Z,100054.21
2024-03-26T21:36:12.290Z,100049.29
2024-03-26T21:38:42.126Z,100049.55
2024-03-26T21:41:12.371Z,100048.75
2024-03-26T21:43:40.205Z,100048.30
2024-03-26T21:46:09.868Z,100049.51
2024-03-26T21:48:39.562Z,100051.38
2024-03-26T21:51:06.486Z,100052.45
2024-03-26T21:53:36.417Z,100055.26
2024-03-26T21:56:08.486Z,100057.95
2024-03-26T21:58:35.576Z,100055.05
2024-03-26T22:01:03.463Z,100048.10
2024-03-26T22:03:34.141Z,100040.41
2024-03-26T22:06:03.473Z,100037.14
2024-03-26T22:08:31.812Z,100033.84
2024-03-26T22:11:03.740Z,100031.56
2024-03-26T22:13:36.747Z,100030.08
2024-03-26T22:16:06.905Z,100028.45
2024-03-26T22:18:37.635Z,100028.30
2024-03-26T22:21:05.900Z,100022.71
2024-03-26T22:23:36.976Z,100019.52
2024-03-26T22:26:10.790Z,100022.27
2024-03-26T22:28:39.770Z,100020.60
2024-03-26T22:31:07.888Z,100018.50
2024-03-26T22:33:40.859Z,100013.31
2024-03-26T22:36:12.628Z,100012.85
2024-03-26T22:38:41.763Z,100011.04
2024-03-26T22:41:09.301Z,100012.41
2024-03-26T22:43:41.675Z,100009.92
2024-03-26T22:46:11.929Z,100007.80
2024-03-26T22:48:39.520Z,100004.40
2024-03-26T22:51:08.612Z,100003.66
2024-03-26T22:53:35.709Z,99999.63
2024-03-26T22:56:06.752Z,99995.17
2024-03-26T22:58:34.894Z,99992.22
2024-03-26T23:01:09.280Z,99985.80
2024-03-26T23:03:37.276Z,99982.98
2024-03-26T23:06:08.917Z,99978.64
2024-03-26T23:08:36.929Z,99974.69
2024-03-26T23:11:07.994Z,99977.33
2024-03-26T23:13:36.058Z,99975.33
2024-03-26T23:16:06.504Z,99968.73
2024-03-26T23:18:35.114Z,99969.05
2024-03-26T23:21:05.269Z,99967.05
2024-03-26T23:23:34.076Z,99965.56
2024-03-26T23:26:01.184Z,99963.89
2024-03-26T23:28:29.557Z,99961.45
2024-03-26T23:30:57.400Z,99955.64
2024-03-26T23:33:24.423Z,99949.98
2024-03-26T23:35:51.554Z,99945.79
2024-03-26T23:38:19.023Z,99944.62
2024-03-26T23:40:51.941Z,99932.74
2024-03-26T23:43:18.815Z,99933.86
2024-03-26T23:45:47.452Z,99932.75
2024-03-26T23:48:16.513Z,99924.70
2024-03-26T23:50:44.627Z,99916.44
2024-03-26T23:53:11.912Z,99921.00
2024-03-26T23:55:40.921Z,99920.77
2024-03-26T23:58:09.294Z,99916.65
